createdAt,value
2022-12-07T00:01:37.135Z,14.53
2022-12-07T00:04:06.131Z,15.27
2022-12-07T00:06:42.177Z,14.53
2022-12-07T00:09:15.849Z,15.10
2022-12-07T00:11:43.705Z,15.57
2022-12-07T00:14:16.148Z,15.27
2022-12-07T00:16:45.251Z,15.27
2022-12-07T00:19:14.511Z,14.97
2022-12-07T00:21:42.283Z,15.13
2022-12-07T00:24:11.925Z,16.60
2022-12-07T00:26:41.722Z,15.93
2022-12-07T00:29:18.535Z,18.03
2022-12-07T00:31:46.444Z,15.87
2022-12-07T00:34:18.056Z,15.77
2022-12-07T00:36:45.701Z,17.40
2022-12-07T00:39:13.782Z,15.90
2022-12-07T00:41:42.187Z,15.87
2022-12-07T00:44:10.425Z,15.50
2022-12-07T00:46:38.292Z,14.07
2022-12-07T00:49:06.325Z,13.90
2022-12-07T00:51:34.133Z,16.73
2022-12-07T00:54:02.215Z,15.93
2022-12-07T00:56:30.267Z,15.93
2022-12-07T00:59:00.603Z,17.73
2022-12-07T01:01:31.363Z,16.33
2022-12-07T01:04:00.180Z,18.07
2022-12-07T01:06:28.025Z,16.07
2022-12-07T01:08:56.396Z,18.37
2022-12-07T01:11:26.412Z,15.97
2022-12-07T01:13:55.541Z,17.03
2022-12-07T01:16:24.698Z,16.10
2022-12-07T01:18:55.070Z,16.57
2022-12-07T01:21:25.170Z,16.60
2022-12-07T01:23:53.147Z,16.10
2022-12-07T01:26:23.326Z,15.77
2022-12-07T01:28:51.532Z,13.27
2022-12-07T01:31:21.598Z,14.83
2022-12-07T01:33:52.992Z,14.07
2022-12-07T01:36:21.628Z,12.77
2022-12-07T01:38:52.788Z,12.60
2022-12-07T01:41:21.952Z,14.87
2022-12-07T01:44:17.580Z,13.53
2022-12-07T01:46:59.542Z,16.03
2022-12-07T01:49:41.675Z,13.47
2022-12-07T01:52:45.672Z,12.60
2022-12-07T01:55:15.960Z,14.03
2022-12-07T01:57:48.926Z,13.00
2022-12-07T02:00:17.948Z,11.93
2022-12-07T02:02:55.329Z,12.60
2022-12-07T02:05:25.398Z,12.33
2022-12-07T02:07:56.204Z,13.13
2022-12-07T02:10:26.739Z,11.83
2022-12-07T02:13:07.402Z,12.50
2022-12-07T02:16:12.010Z,12.37
2022-12-07T02:18:55.152Z,13.10
2022-12-07T02:21:30.513Z,12.33
2022-12-07T02:24:15.814Z,12.03
2022-12-07T02:26:58.309Z,12.23
2022-12-07T02:29:26.759Z,12.40
2022-12-07T02:32:20.999Z,11.70
2022-12-07T02:35:05.591Z,12.77
2022-12-07T02:37:54.261Z,10.77
2022-12-07T02:40:32.574Z,11.80
2022-12-07T02:43:07.805Z,12.73
2022-12-07T02:45:39.183Z,11.00
2022-12-07T02:48:08.410Z,12.10
2022-12-07T02:50:36.219Z,12.23
2022-12-07T02:53:03.787Z,11.47
2022-12-07T02:55:39.928Z,13.27
2022-12-07T02:58:26.268Z,12.33
2022-12-07T03:01:10.273Z,14.20
2022-12-07T03:03:41.172Z,14.93
2022-12-07T03:06:26.847Z,15.20
2022-12-07T03:09:22.035Z,16.63
2022-12-07T03:11:56.651Z,18.90
2022-12-07T03:14:35.043Z,16.40
2022-12-07T03:17:14.112Z,18.73
2022-12-07T03:19:44.085Z,20.27
2022-12-07T03:22:14.006Z,19.07
2022-12-07T03:24:54.987Z,20.73
2022-12-07T03:27:25.505Z,20.73
2022-12-07T03:30:03.224Z,22.80
2022-12-07T03:32:38.589Z,22.93
2022-12-07T03:35:19.643Z,23.70
2022-12-07T03:37:56.004Z,21.60
2022-12-07T03:40:34.200Z,22.60
2022-12-07T03:43:03.260Z,21.63
2022-12-07T03:45:40.676Z,20.37
2022-12-07T03:48:35.437Z,19.77
2022-12-07T03:51:34.777Z,18.13
2022-12-07T03:54:25.700Z,17.33
2022-12-07T03:56:54.073Z,17.73
2022-12-07T03:59:22.472Z,16.73
2022-12-07T04:01:56.349Z,19.07
2022-12-07T04:04:27.050Z,16.00
2022-12-07T04:06:55.190Z,17.50
2022-12-07T04:09:22.974Z,17.60
2022-12-07T04:11:50.868Z,15.90
2022-12-07T04:14:21.598Z,16.83
2022-12-07T04:16:57.680Z,14.93
2022-12-07T04:19:30.890Z,15.77
2022-12-07T04:21:59.740Z,15.13
2022-12-07T04:24:27.737Z,16.17
2022-12-07T04:26:55.724Z,13.73
2022-12-07T04:29:23.394Z,14.00
2022-12-07T04:31:51.585Z,14.13
2022-12-07T04:34:19.907Z,12.67
2022-12-07T04:36:48.731Z,13.97
2022-12-07T04:39:24.506Z,14.17
2022-12-07T04:41:52.429Z,12.47
2022-12-07T04:44:20.732Z,15.23
2022-12-07T04:46:48.468Z,13.60
2022-12-07T04:49:16.779Z,14.60
2022-12-07T04:51:45.641Z,16.07
2022-12-07T04:54:14.504Z,12.70
2022-12-07T04:56:42.493Z,13.40
2022-12-07T04:59:11.468Z,12.27
2022-12-07T05:01:39.456Z,12.23
2022-12-07T05:04:07.956Z,11.73
2022-12-07T05:06:35.916Z,13.90
2022-12-07T05:09:04.198Z,12.13
2022-12-07T05:11:41.456Z,11.57
2022-12-07T05:14:16.056Z,11.33
2022-12-07T05:16:45.141Z,11.23
2022-12-07T05:19:13.322Z,11.67
2022-12-07T05:21:41.625Z,11.07
2022-12-07T05:24:12.104Z,10.90
2022-12-07T05:26:40.083Z,14.77
2022-12-07T05:29:07.498Z,11.57
2022-12-07T05:31:35.422Z,10.77
2022-12-07T05:34:03.192Z,11.27
2022-12-07T05:36:33.011Z,9.33
2022-12-07T05:39:00.828Z,11.30
2022-12-07T05:41:47.147Z,10.10
2022-12-07T05:44:14.709Z,9.93
2022-12-07T05:46:42.350Z,9.80
2022-12-07T05:49:09.591Z,8.90
2022-12-07T05:51:37.476Z,9.17
2022-12-07T05:54:04.873Z,9.37
2022-12-07T05:56:32.433Z,9.77
2022-12-07T05:59:18.335Z,9.10
2022-12-07T06:01:46.039Z,10.00
2022-12-07T06:04:13.539Z,11.03
2022-12-07T06:06:41.177Z,10.70
2022-12-07T06:09:08.524Z,11.93
2022-12-07T06:11:54.480Z,12.27
2022-12-07T06:14:21.808Z,11.97
2022-12-07T06:16:49.828Z,13.37
2022-12-07T06:19:17.386Z,13.40
2022-12-07T06:21:44.973Z,14.87
2022-12-07T06:24:16.830Z,13.63
2022-12-07T06:26:44.675Z,13.43
2022-12-07T06:29:13.083Z,14.70
2022-12-07T06:31:41.555Z,14.53
2022-12-07T06:34:12.644Z,13.07
2022-12-07T06:36:40.411Z,14.17
2022-12-07T06:39:10.150Z,15.97
2022-12-07T06:41:39.056Z,15.07
2022-12-07T06:44:07.292Z,15.17
2022-12-07T06:46:36.400Z,15.23
2022-12-07T06:49:05.272Z,14.87
2022-12-07T06:51:34.090Z,15.90
2022-12-07T06:54:01.379Z,21.07
2022-12-07T06:56:29.875Z,21.93
2022-12-07T06:58:57.553Z,20.33
2022-12-07T07:01:25.488Z,19.20
2022-12-07T07:03:53.430Z,19.50
2022-12-07T07:06:21.083Z,18.73
2022-12-07T07:08:48.385Z,21.10
2022-12-07T07:11:15.980Z,21.87
2022-12-07T07:13:43.281Z,24.03
2022-12-07T07:16:11.756Z,23.10
2022-12-07T07:18:39.483Z,23.73
2022-12-07T07:21:07.492Z,23.20
2022-12-07T07:23:34.872Z,23.07
2022-12-07T07:26:02.933Z,23.47
2022-12-07T07:28:30.235Z,23.47
2022-12-07T07:30:57.849Z,23.37
2022-12-07T07:33:25.533Z,34.80
2022-12-07T07:35:53.090Z,29.17
2022-12-07T07:38:20.393Z,28.63
2022-12-07T07:40:48.195Z,27.37
2022-12-07T07:43:15.931Z,26.13
2022-12-07T07:45:43.991Z,24.03
2022-12-07T07:48:11.742Z,24.13
2022-12-07T07:50:39.374Z,39.23
2022-12-07T07:53:07.031Z,43.03
2022-12-07T07:55:35.169Z,29.63
2022-12-07T07:58:03.205Z,22.87
2022-12-07T08:00:30.740Z,21.17
2022-12-07T08:02:58.521Z,21.43
2022-12-07T08:05:26.505Z,21.43
2022-12-07T08:07:54.279Z,19.53
2022-12-07T08:10:22.318Z,24.63
2022-12-07T08:13:07.915Z,22.60
2022-12-07T08:15:39.215Z,22.20
2022-12-07T08:18:06.499Z,20.27
2022-12-07T08:20:36.366Z,18.73
2022-12-07T08:23:04.366Z,20.17
2022-12-07T08:25:33.129Z,18.57
2022-12-07T08:28:01.647Z,18.83
2022-12-07T08:30:30.779Z,18.00
2022-12-07T08:32:58.312Z,18.80
2022-12-07T08:35:27.219Z,19.13
2022-12-07T08:37:54.842Z,18.60
2022-12-07T08:40:22.311Z,17.70
2022-12-07T08:42:50.720Z,16.83
2022-12-07T08:45:24.962Z,17.07
2022-12-07T08:48:07.353Z,18.17
2022-12-07T08:50:36.927Z,16.03
2022-12-07T08:53:06.371Z,17.33
2022-12-07T08:55:35.728Z,18.57
2022-12-07T08:58:04.414Z,18.17
2022-12-07T09:00:32.439Z,18.67
2022-12-07T09:03:00.622Z,16.87
2022-12-07T09:05:28.692Z,18.77
2022-12-07T09:08:01.175Z,17.40
2022-12-07T09:10:30.420Z,17.03
2022-12-07T09:13:01.865Z,17.83
2022-12-07T09:15:30.872Z,16.53
2022-12-07T09:17:58.358Z,17.63
2022-12-07T09:20:28.124Z,17.03
2022-12-07T09:22:55.940Z,17.57
2022-12-07T09:25:23.548Z,15.23
2022-12-07T09:27:57.968Z,14.43
2022-12-07T09:30:27.479Z,16.37
2022-12-07T09:32:56.527Z,15.40
2022-12-07T09:35:25.721Z,13.03
2022-12-07T09:37:53.116Z,13.23
2022-12-07T09:40:23.319Z,13.37
2022-12-07T09:42:54.591Z,13.80
2022-12-07T09:45:30.330Z,12.77
2022-12-07T09:47:59.876Z,12.83
2022-12-07T09:50:29.596Z,13.83
2022-12-07T09:53:13.666Z,13.00
2022-12-07T09:55:42.840Z,14.70
2022-12-07T09:58:23.935Z,14.27
2022-12-07T10:01:22.622Z,14.00
2022-12-07T10:03:53.169Z,14.30
2022-12-07T10:06:21.535Z,13.90
2022-12-07T10:08:49.166Z,14.40
2022-12-07T10:11:17.347Z,15.13
2022-12-07T10:13:48.914Z,15.40
2022-12-07T10:16:27.270Z,15.50
2022-12-07T10:18:55.477Z,15.20
2022-12-07T10:21:27.910Z,14.53
2022-12-07T10:24:04.229Z,13.70
2022-12-07T10:26:35.558Z,15.53
2022-12-07T10:29:32.565Z,14.50
2022-12-07T10:32:15.245Z,14.57
2022-12-07T10:34:47.436Z,14.77
2022-12-07T10:37:21.064Z,14.70
2022-12-07T10:39:48.321Z,13.67
2022-12-07T10:42:25.266Z,13.53
2022-12-07T10:45:16.426Z,15.87
2022-12-07T10:48:15.711Z,15.60
2022-12-07T10:50:49.378Z,17.37
2022-12-07T10:53:41.686Z,15.00
2022-12-07T10:56:51.214Z,15.87
2022-12-07T10:59:50.664Z,14.97
2022-12-07T11:02:34.314Z,14.07
2022-12-07T11:05:05.565Z,15.63
2022-12-07T11:07:41.124Z,13.33
2022-12-07T11:10:26.085Z,14.27
2022-12-07T11:13:13.420Z,14.17
2022-12-07T11:16:17.226Z,15.27
2022-12-07T11:19:25.235Z,14.33
2022-12-07T11:22:01.050Z,14.43
2022-12-07T11:24:35.764Z,15.03
2022-12-07T11:27:03.707Z,13.87
2022-12-07T11:30:03.753Z,14.83
2022-12-07T11:32:32.176Z,16.50
2022-12-07T11:35:15.786Z,14.57
2022-12-07T11:37:44.368Z,14.70
2022-12-07T11:40:37.197Z,16.07
2022-12-07T11:43:19.443Z,18.10
2022-12-07T11:45:54.290Z,17.83
2022-12-07T11:48:39.528Z,17.37
2022-12-07T11:51:11.755Z,17.43
2022-12-07T11:53:45.618Z,15.90
2022-12-07T11:56:16.731Z,16.70
2022-12-07T11:58:44.697Z,16.83
2022-12-07T12:01:14.718Z,18.13
2022-12-07T12:04:05.605Z,16.40
2022-12-07T12:06:36.152Z,16.60
2022-12-07T12:09:40.107Z,16.33
2022-12-07T12:15:39.997Z,14.17
2022-12-07T12:18:35.285Z,15.80
2022-12-07T12:21:12.309Z,15.80
2022-12-07T12:23:42.595Z,18.73
2022-12-07T12:26:21.165Z,16.83
2022-12-07T12:29:21.486Z,13.57
2022-12-07T12:32:06.233Z,15.93
2022-12-07T12:34:59.482Z,15.47
2022-12-07T12:37:35.913Z,15.87
2022-12-07T12:40:16.166Z,14.87
2022-12-07T12:42:57.702Z,15.70
2022-12-07T12:45:29.689Z,15.37
2022-12-07T12:48:16.139Z,41.80
2022-12-07T12:50:43.446Z,16.10
2022-12-07T12:53:21.382Z,16.80
2022-12-07T12:56:12.122Z,14.63
2022-12-07T12:58:42.546Z,17.07
2022-12-07T13:01:28.726Z,16.77
2022-12-07T13:03:57.576Z,16.20
2022-12-07T13:06:27.796Z,15.43
2022-12-07T13:08:58.820Z,16.10
2022-12-07T13:11:28.967Z,15.47
2022-12-07T13:14:35.142Z,16.53
2022-12-07T13:17:02.586Z,17.13
2022-12-07T13:19:42.146Z,16.53
2022-12-07T13:22:32.299Z,17.80
2022-12-07T13:25:21.027Z,19.00
2022-12-07T13:28:01.996Z,19.30
2022-12-07T13:30:30.962Z,18.53
2022-12-07T13:33:00.482Z,17.53
2022-12-07T13:35:38.648Z,15.90
2022-12-07T13:38:18.049Z,18.43
2022-12-07T13:41:13.760Z,17.13
2022-12-07T13:43:51.916Z,16.80
2022-12-07T13:46:27.329Z,18.97
2022-12-07T13:48:56.721Z,19.07
2022-12-07T13:51:29.391Z,18.87
2022-12-07T13:54:01.856Z,19.10
2022-12-07T13:56:35.133Z,21.17
2022-12-07T13:59:03.665Z,20.83
2022-12-07T14:01:34.942Z,26.83
2022-12-07T14:04:20.124Z,19.47
2022-12-07T14:06:52.476Z,25.97
2022-12-07T14:09:25.591Z,23.03
2022-12-07T14:11:55.549Z,23.60
2022-12-07T14:14:34.574Z,22.30
2022-12-07T14:17:16.705Z,22.13
2022-12-07T14:19:57.818Z,18.90
2022-12-07T14:22:32.332Z,19.80
2022-12-07T14:25:21.810Z,21.77
2022-12-07T14:27:59.478Z,21.43
2022-12-07T14:30:31.764Z,21.13
2022-12-07T14:33:06.625Z,20.23
2022-12-07T14:35:34.114Z,25.83
2022-12-07T14:38:01.733Z,26.73
2022-12-07T14:40:31.024Z,24.20
2022-12-07T14:43:19.351Z,27.17
2022-12-07T14:45:48.693Z,29.97
2022-12-07T14:53:57.004Z,34.90
2022-12-07T14:56:28.998Z,31.43
2022-12-07T14:58:56.607Z,30.87
2022-12-07T15:01:24.037Z,27.17
2022-12-07T15:03:52.220Z,22.60
2022-12-07T15:06:20.288Z,21.83
2022-12-07T15:08:48.195Z,22.17
2022-12-07T15:11:17.227Z,22.73
2022-12-07T15:14:03.690Z,22.40
2022-12-07T15:16:52.457Z,23.37
2022-12-07T15:19:31.134Z,21.00
2022-12-07T15:21:59.428Z,19.40
2022-12-07T15:24:27.897Z,21.83
2022-12-07T15:26:55.499Z,18.10
2022-12-07T15:29:24.156Z,20.43
2022-12-07T15:31:57.399Z,18.13
2022-12-07T15:34:34.711Z,19.23
2022-12-07T15:37:03.725Z,18.67
2022-12-07T15:39:31.422Z,18.20
2022-12-07T15:41:59.799Z,16.10
2022-12-07T15:44:48.658Z,18.87
2022-12-07T15:47:16.102Z,19.37
2022-12-07T15:49:44.530Z,20.63
2022-12-07T15:52:11.899Z,23.27
2022-12-07T15:54:39.443Z,27.20
2022-12-07T15:57:06.789Z,25.93
2022-12-07T15:59:34.427Z,24.50
2022-12-07T16:02:01.852Z,28.80
2022-12-07T16:04:33.076Z,24.10
2022-12-07T16:07:00.425Z,26.40
2022-12-07T16:09:28.064Z,21.10
2022-12-07T16:11:55.867Z,21.53
2022-12-07T16:14:23.984Z,21.27
2022-12-07T16:16:51.546Z,22.80
2022-12-07T16:19:19.338Z,24.93
2022-12-07T16:21:46.691Z,21.97
2022-12-07T16:24:16.258Z,27.87
2022-12-07T16:26:49.582Z,22.53
2022-12-07T16:29:20.654Z,18.37
2022-12-07T16:31:49.371Z,18.13
2022-12-07T16:34:17.560Z,18.73
2022-12-07T16:39:34.356Z,20.60
2022-12-07T16:42:02.012Z,19.50
2022-12-07T16:44:30.169Z,21.97
2022-12-07T16:46:58.118Z,21.07
2022-12-07T16:49:26.245Z,23.53
2022-12-07T16:52:18.166Z,21.10
2022-12-07T16:54:42.617Z,19.03
2022-12-07T16:57:10.070Z,17.33
2022-12-07T16:59:37.677Z,19.80
2022-12-07T17:02:04.987Z,19.53
2022-12-07T17:04:34.358Z,19.37
2022-12-07T17:07:01.796Z,19.83
2022-12-07T17:09:30.109Z,21.30
2022-12-07T17:11:57.373Z,19.77
2022-12-07T17:14:43.366Z,19.07
2022-12-07T17:17:10.723Z,20.80
2022-12-07T17:19:38.449Z,23.00
2022-12-07T17:22:06.370Z,22.90
2022-12-07T17:24:33.923Z,23.47
2022-12-07T17:27:01.214Z,22.63
2022-12-07T17:29:28.716Z,23.97
2022-12-07T17:31:55.982Z,25.60
2022-12-07T17:34:23.565Z,21.40
2022-12-07T17:36:50.877Z,23.30
2022-12-07T17:39:19.645Z,23.10
2022-12-07T17:42:05.873Z,24.40
2022-12-07T17:44:33.572Z,23.77
2022-12-07T17:47:02.899Z,19.90
2022-12-07T17:49:30.749Z,21.50
2022-12-07T17:52:16.833Z,22.60
2022-12-07T17:54:44.684Z,21.07
2022-12-07T17:57:12.276Z,20.73
2022-12-07T17:59:39.934Z,18.70
2022-12-07T18:02:08.869Z,18.80
2022-12-07T18:04:37.836Z,22.27
2022-12-07T18:07:06.945Z,22.67
2022-12-07T18:09:35.151Z,20.13
2022-12-07T18:12:03.289Z,21.17
2022-12-07T18:14:31.091Z,16.83
2022-12-07T18:16:58.754Z,23.10
2022-12-07T18:19:26.478Z,16.97
2022-12-07T18:21:53.819Z,13.80
2022-12-07T18:24:21.361Z,14.83
2022-12-07T18:26:48.848Z,13.07
2022-12-07T18:29:18.119Z,13.53
2022-12-07T18:31:47.772Z,14.07
2022-12-07T18:34:18.263Z,14.27
2022-12-07T18:36:50.245Z,13.50
2022-12-07T18:39:19.364Z,14.00
2022-12-07T18:41:47.238Z,13.73
2022-12-07T18:44:16.773Z,13.80
2022-12-07T18:46:44.223Z,13.97
2022-12-07T18:49:15.072Z,15.73
2022-12-07T18:51:43.050Z,13.47
2022-12-07T18:54:11.097Z,12.17
2022-12-07T18:56:39.297Z,11.80
2022-12-07T18:59:26.083Z,11.53
2022-12-07T19:01:55.141Z,9.63
2022-12-07T19:04:23.640Z,11.57
2022-12-07T19:06:51.494Z,9.87
2022-12-07T19:09:19.745Z,10.00
2022-12-07T19:11:51.295Z,11.37
2022-12-07T19:14:25.964Z,11.23
2022-12-07T19:16:57.712Z,10.67
2022-12-07T19:19:37.316Z,12.33
2022-12-07T19:22:06.355Z,11.40
2022-12-07T19:24:35.564Z,9.97
2022-12-07T19:27:04.887Z,10.57
2022-12-07T19:29:33.216Z,10.43
2022-12-07T19:32:02.553Z,11.73
2022-12-07T19:34:30.789Z,10.50
2022-12-07T19:36:58.898Z,9.33
2022-12-07T19:39:27.185Z,11.30
2022-12-07T19:41:55.965Z,12.33
2022-12-07T19:44:26.579Z,9.93
2022-12-07T19:47:02.562Z,10.00
2022-12-07T19:49:34.313Z,10.87
2022-12-07T19:52:04.528Z,11.47
2022-12-07T19:54:33.160Z,12.00
2022-12-07T19:57:01.318Z,12.40
2022-12-07T19:59:30.285Z,12.63
2022-12-07T20:01:58.026Z,12.40
2022-12-07T20:04:32.238Z,11.97
2022-12-07T20:07:01.017Z,11.57
2022-12-07T20:09:29.538Z,11.53
2022-12-07T20:12:15.793Z,11.67
2022-12-07T20:14:44.013Z,10.40
2022-12-07T20:17:12.144Z,10.33
2022-12-07T20:19:40.567Z,10.87
2022-12-07T20:22:08.244Z,9.80
2022-12-07T20:24:36.862Z,10.00
2022-12-07T20:27:05.238Z,9.80
2022-12-07T20:29:33.342Z,10.10
2022-12-07T20:32:00.909Z,11.80
2022-12-07T20:34:29.227Z,9.83
2022-12-07T20:36:57.074Z,9.30
2022-12-07T20:39:25.513Z,8.87
2022-12-07T20:42:12.181Z,9.53
2022-12-07T20:44:40.233Z,8.07
2022-12-07T20:47:07.550Z,8.77
2022-12-07T20:49:35.408Z,10.87
2022-12-07T20:52:03.358Z,11.17
2022-12-07T20:54:31.292Z,10.27
2022-12-07T20:56:59.094Z,10.70
2022-12-07T20:59:26.856Z,9.07
2022-12-07T21:01:54.223Z,9.80
2022-12-07T21:04:22.512Z,10.13
2022-12-07T21:06:49.983Z,9.70
2022-12-07T21:09:17.874Z,9.67
2022-12-07T21:11:45.200Z,6.93
2022-12-07T21:14:13.049Z,9.20
2022-12-07T21:16:40.380Z,8.97
2022-12-07T21:19:07.970Z,8.50
2022-12-07T21:21:35.733Z,7.77
2022-12-07T21:24:05.054Z,8.00
2022-12-07T21:26:35.687Z,7.53
2022-12-07T21:29:06.466Z,7.40
2022-12-07T21:31:36.533Z,7.87
2022-12-07T21:34:05.059Z,7.40
2022-12-07T21:36:33.528Z,7.10
2022-12-07T21:39:01.828Z,6.87
2022-12-07T21:41:32.113Z,7.50
2022-12-07T21:44:00.328Z,7.60
2022-12-07T21:46:34.050Z,7.37
2022-12-07T21:49:05.694Z,8.30
2022-12-07T21:51:33.348Z,8.13
2022-12-07T21:54:02.358Z,9.40
2022-12-07T21:56:39.231Z,8.47
2022-12-07T21:59:12.914Z,8.93
2022-12-07T22:01:42.292Z,8.53
2022-12-07T22:04:14.605Z,8.00
2022-12-07T22:06:42.038Z,11.13
2022-12-07T22:09:10.203Z,10.57
2022-12-07T22:11:38.115Z,8.70
2022-12-07T22:14:25.472Z,9.00
2022-12-07T22:16:53.205Z,9.30
2022-12-07T22:19:21.165Z,9.60
2022-12-07T22:21:48.693Z,7.87
2022-12-07T22:24:16.564Z,9.07
2022-12-07T22:26:44.556Z,8.50
2022-12-07T22:29:12.439Z,8.63
2022-12-07T22:31:41.458Z,9.13
2022-12-07T22:34:15.723Z,8.27
2022-12-07T22:36:43.399Z,8.50
2022-12-07T22:39:11.597Z,8.83
2022-12-07T22:41:39.953Z,7.87
2022-12-07T22:44:08.670Z,7.87
2022-12-07T22:46:36.752Z,8.60
2022-12-07T22:49:05.600Z,7.53
2022-12-07T22:51:35.498Z,7.67
2022-12-07T22:54:05.832Z,7.63
2022-12-07T22:56:35.259Z,8.77
2022-12-07T22:59:03.715Z,9.13
2022-12-07T23:01:31.554Z,8.97
2022-12-07T23:03:59.696Z,8.10
2022-12-07T23:06:31.375Z,7.03
2022-12-07T23:09:01.115Z,7.77
2022-12-07T23:11:50.070Z,7.10
2022-12-07T23:14:24.199Z,7.00
2022-12-07T23:16:51.707Z,7.53
2022-12-07T23:19:19.426Z,7.00
2022-12-07T23:21:47.273Z,7.20
2022-12-07T23:24:15.513Z,7.13
2022-12-07T23:26:44.199Z,6.50
2022-12-07T23:29:17.184Z,6.73
2022-12-07T23:31:47.462Z,6.83
2022-12-07T23:34:15.357Z,8.07
2022-12-07T23:36:42.708Z,7.10
2022-12-07T23:39:11.782Z,7.23
2022-12-07T23:41:39.143Z,6.20
2022-12-07T23:44:06.792Z,6.03
2022-12-07T23:46:35.087Z,5.97
2022-12-07T23:49:05.137Z,6.67
2022-12-07T23:51:33.526Z,6.27
2022-12-07T23:54:02.154Z,6.70
2022-12-07T23:56:31.597Z,6.93
2022-12-07T23:58:59.993Z,8.07
